createdAt,value
2018-12-11T00:00:02.685Z,2.90
2018-12-11T00:02:32.413Z,2.80
2018-12-11T00:05:01.033Z,2.80
2018-12-11T00:07:29.629Z,2.80
2018-12-11T00:09:58.169Z,2.90
2018-12-11T00:12:26.757Z,2.90
2018-12-11T00:14:55.424Z,2.90
2018-12-11T00:17:23.981Z,2.80
2018-12-11T00:19:52.559Z,2.80
2018-12-11T00:22:21.703Z,2.80
2018-12-11T00:24:50.390Z,2.80
2018-12-11T00:27:19.025Z,2.80
2018-12-11T00:29:48.187Z,2.80
2018-12-11T00:32:17.447Z,2.80
2018-12-11T00:34:46.027Z,2.80
2018-12-11T00:37:14.679Z,2.80
2018-12-11T00:39:43.253Z,2.80
2018-12-11T00:42:11.919Z,2.80
2018-12-11T00:44:41.478Z,2.80
2018-12-11T00:47:10.003Z,2.80
2018-12-11T00:49:38.523Z,2.70
2018-12-11T00:52:07.096Z,2.70
2018-12-11T00:54:36.011Z,2.70
2018-12-11T00:57:05.535Z,2.70
2018-12-11T00:59:36.351Z,2.70
2018-12-11T01:02:05.274Z,2.70
2018-12-11T01:04:33.913Z,2.80
2018-12-11T01:07:02.429Z,2.70
2018-12-11T01:09:31.358Z,2.80
2018-12-11T01:12:00.049Z,2.70
2018-12-11T01:14:28.597Z,2.80
2018-12-11T01:16:57.388Z,2.70
2018-12-11T01:19:26.090Z,2.80
2018-12-11T01:21:54.655Z,2.70
2018-12-11T01:24:23.200Z,2.70
2018-12-11T01:26:52.025Z,2.70
2018-12-11T01:29:20.579Z,2.70
2018-12-11T01:31:50.014Z,2.80
2018-12-11T01:34:18.579Z,2.80
2018-12-11T01:36:47.212Z,2.80
2018-12-11T01:39:15.909Z,2.80
2018-12-11T01:41:44.479Z,2.70
2018-12-11T01:44:12.989Z,2.80
2018-12-11T01:46:43.966Z,2.70
2018-12-11T01:49:12.504Z,2.80
2018-12-11T01:51:41.012Z,2.70
2018-12-11T01:54:09.532Z,2.80
2018-12-11T01:56:38.161Z,2.70
2018-12-11T01:59:06.954Z,2.70
2018-12-11T02:01:35.524Z,2.70
2018-12-11T02:04:04.106Z,2.70
2018-12-11T02:06:35.225Z,2.70
2018-12-11T02:09:05.390Z,2.60
2018-12-11T02:11:34.528Z,2.60
2018-12-11T02:14:03.878Z,2.50
2018-12-11T02:16:32.385Z,2.50
2018-12-11T02:19:01.083Z,2.50
2018-12-11T02:21:29.717Z,2.50
2018-12-11T02:23:58.245Z,2.50
2018-12-11T02:26:26.890Z,2.60
2018-12-11T02:28:55.399Z,2.50
2018-12-11T02:31:23.926Z,2.50
2018-12-11T02:33:52.443Z,2.50
2018-12-11T02:36:21.004Z,2.50
2018-12-11T02:38:49.579Z,2.30
2018-12-11T02:41:18.091Z,2.30
2018-12-11T02:43:46.643Z,2.30
2018-12-11T02:46:15.343Z,2.30
2018-12-11T02:48:43.940Z,2.40
2018-12-11T02:51:12.489Z,2.30
2018-12-11T02:53:41.021Z,2.30
2018-12-11T02:56:09.620Z,2.40
2018-12-11T02:58:38.518Z,2.50
2018-12-11T03:01:07.143Z,2.40
2018-12-11T03:03:35.647Z,2.30
2018-12-11T03:06:04.198Z,2.30
2018-12-11T03:08:32.775Z,2.20
2018-12-11T03:11:01.358Z,2.20
2018-12-11T03:13:29.956Z,2.10
2018-12-11T03:15:58.456Z,2.10
2018-12-11T03:18:27.000Z,2.10
2018-12-11T03:20:55.488Z,1.90
2018-12-11T03:23:24.598Z,1.80
2018-12-11T03:25:53.133Z,1.70
2018-12-11T03:28:21.656Z,1.60
2018-12-11T03:30:50.202Z,1.50
2018-12-11T03:33:19.373Z,1.50
2018-12-11T03:35:47.888Z,1.60
2018-12-11T03:38:16.645Z,1.40
2018-12-11T03:40:45.686Z,1.20
2018-12-11T03:43:14.187Z,1.10
2018-12-11T03:45:43.328Z,1.20
2018-12-11T03:48:11.999Z,1.10
2018-12-11T03:50:41.115Z,1.20
2018-12-11T03:53:09.664Z,1.30
2018-12-11T03:55:38.219Z,1.50
2018-12-11T03:58:06.850Z,1.50
2018-12-11T04:00:35.379Z,1.60
2018-12-11T04:03:03.929Z,1.60
2018-12-11T04:05:32.520Z,1.70
2018-12-11T04:08:01.755Z,1.70
2018-12-11T04:10:30.336Z,1.70
2018-12-11T04:12:58.864Z,1.60
2018-12-11T04:15:27.645Z,1.60
2018-12-11T04:17:56.295Z,1.60
2018-12-11T04:20:24.803Z,1.60
2018-12-11T04:22:53.347Z,1.60
2018-12-11T04:25:22.273Z,1.60
2018-12-11T04:27:50.897Z,1.80
2018-12-11T04:30:19.629Z,1.90
2018-12-11T04:32:48.149Z,1.80
2018-12-11T04:35:16.747Z,1.80
2018-12-11T04:37:45.324Z,1.90
2018-12-11T04:40:13.979Z,1.90
2018-12-11T04:42:42.517Z,1.90
2018-12-11T04:45:11.029Z,2.10
2018-12-11T04:47:39.549Z,2.30
2018-12-11T04:50:08.132Z,2.30
2018-12-11T04:52:36.726Z,2.20
2018-12-11T04:55:05.889Z,2.40
2018-12-11T04:57:34.626Z,2.40
2018-12-11T05:00:04.441Z,2.30
2018-12-11T05:02:33.145Z,2.30
2018-12-11T05:05:02.316Z,2.30
2018-12-11T05:07:30.962Z,2.30
2018-12-11T05:09:59.587Z,2.10
2018-12-11T05:12:28.175Z,2.20
2018-12-11T05:14:56.839Z,2.10
2018-12-11T05:17:25.838Z,2.10
2018-12-11T05:19:55.559Z,2.00
2018-12-11T05:22:24.102Z,2.00
2018-12-11T05:24:52.648Z,2.00
2018-12-11T05:27:21.953Z,2.00
2018-12-11T05:29:50.536Z,1.90
2018-12-11T05:32:19.065Z,1.90
2018-12-11T05:34:47.638Z,1.90
2018-12-11T05:37:16.182Z,1.90
2018-12-11T05:39:44.708Z,1.80
2018-12-11T05:42:13.313Z,1.80
2018-12-11T05:44:41.936Z,1.80
2018-12-11T05:47:10.902Z,1.70
2018-12-11T05:49:39.427Z,1.80
2018-12-11T05:52:08.127Z,1.70
2018-12-11T05:54:37.010Z,1.60
2018-12-11T05:57:05.696Z,1.50
2018-12-11T05:59:34.295Z,1.50
2018-12-11T06:02:03.470Z,1.60
2018-12-11T06:04:32.089Z,1.60
2018-12-11T06:07:00.580Z,1.50
2018-12-11T06:09:29.590Z,1.30
2018-12-11T06:11:58.114Z,1.20
2018-12-11T06:14:27.352Z,1.10
2018-12-11T06:16:55.946Z,1.00
2018-12-11T06:19:24.566Z,0.90
2018-12-11T06:21:53.272Z,1.10
2018-12-11T06:24:21.951Z,1.00
2018-12-11T06:26:57.551Z,0.90
2018-12-11T06:29:26.685Z,0.90
2018-12-11T06:31:55.387Z,0.90
2018-12-11T06:34:23.960Z,0.90
2018-12-11T06:36:52.652Z,1.00
2018-12-11T06:39:21.265Z,0.90
2018-12-11T06:41:50.002Z,1.00
2018-12-11T06:44:18.679Z,0.90
2018-12-11T06:46:47.257Z,1.10
2018-12-11T06:49:15.897Z,1.10
2018-12-11T06:51:44.756Z,1.10
2018-12-11T06:54:13.318Z,1.10
2018-12-11T06:56:41.927Z,1.10
2018-12-11T06:59:10.512Z,1.20
2018-12-11T07:01:39.057Z,1.30
2018-12-11T07:04:07.783Z,1.40
2018-12-11T07:06:36.370Z,1.40
2018-12-11T07:09:06.239Z,1.40
2018-12-11T07:11:34.793Z,1.40
2018-12-11T07:14:03.379Z,1.40
2018-12-11T07:16:31.957Z,1.40
2018-12-11T07:19:00.520Z,1.40
2018-12-11T07:21:29.093Z,1.50
2018-12-11T07:23:57.639Z,1.50
2018-12-11T07:26:26.161Z,1.50
2018-12-11T07:28:54.757Z,1.60
2018-12-11T07:31:24.084Z,1.60
2018-12-11T07:33:52.597Z,1.70
2018-12-11T07:36:21.149Z,1.70
2018-12-11T07:38:50.111Z,1.80
2018-12-11T07:41:18.728Z,1.90
2018-12-11T07:43:47.290Z,1.90
2018-12-11T07:46:15.926Z,2.10
2018-12-11T07:48:44.477Z,2.00
2018-12-11T07:51:13.022Z,2.00
2018-12-11T07:53:41.507Z,2.10
2018-12-11T07:56:10.011Z,2.20
2018-12-11T07:58:38.708Z,2.10
2018-12-11T08:01:07.484Z,2.10
2018-12-11T08:03:36.478Z,2.20
2018-12-11T08:06:05.061Z,2.20
2018-12-11T08:08:33.600Z,2.30
2018-12-11T08:11:02.149Z,2.30
2018-12-11T08:13:30.696Z,2.30
2018-12-11T08:15:59.300Z,2.30
2018-12-11T08:18:27.845Z,2.40
2018-12-11T08:20:56.394Z,2.40
2018-12-11T08:23:25.335Z,2.40
2018-12-11T08:25:53.821Z,2.40
2018-12-11T08:28:22.392Z,2.50
2018-12-11T08:30:51.239Z,2.50
2018-12-11T08:33:19.965Z,2.60
2018-12-11T08:35:48.540Z,2.60
2018-12-11T08:38:17.051Z,2.70
2018-12-11T08:40:45.638Z,2.70
2018-12-11T08:43:14.235Z,2.80
2018-12-11T08:45:42.761Z,2.70
2018-12-11T08:48:11.249Z,2.80
2018-12-11T08:50:39.933Z,2.80
2018-12-11T08:53:08.413Z,2.90
2018-12-11T08:55:37.001Z,2.90
2018-12-11T08:58:05.569Z,2.80
2018-12-11T09:00:34.059Z,2.90
2018-12-11T09:03:02.745Z,3.00
2018-12-11T09:05:31.352Z,2.90
2018-12-11T09:07:59.935Z,3.00
2018-12-11T09:10:29.137Z,3.20
2018-12-11T09:12:57.716Z,3.30
2018-12-11T09:15:26.554Z,3.30
2018-12-11T09:17:55.851Z,3.30
2018-12-11T09:20:24.382Z,3.30
2018-12-11T09:22:53.090Z,3.40
2018-12-11T09:25:21.605Z,3.40
2018-12-11T09:27:50.382Z,3.50
2018-12-11T09:30:18.946Z,3.50
2018-12-11T09:32:47.453Z,3.60
2018-12-11T09:35:15.952Z,3.60
2018-12-11T09:37:44.523Z,3.70
2018-12-11T09:40:13.156Z,3.70
2018-12-11T09:42:41.844Z,3.50
2018-12-11T09:45:10.452Z,3.70
2018-12-11T09:47:38.961Z,3.90
2018-12-11T09:50:07.574Z,4.00
2018-12-11T09:52:36.168Z,4.00
2018-12-11T09:55:05.104Z,4.00
2018-12-11T09:57:33.688Z,4.30
2018-12-11T10:00:02.240Z,4.20
2018-12-11T10:02:30.725Z,4.20
2018-12-11T10:04:59.283Z,4.20
2018-12-11T10:07:27.932Z,4.10
2018-12-11T10:09:56.468Z,4.00
2018-12-11T10:12:24.996Z,3.80
2018-12-11T10:14:54.292Z,3.90
2018-12-11T10:17:22.896Z,3.90
2018-12-11T10:19:51.944Z,3.80
2018-12-11T10:22:20.475Z,3.80
2018-12-11T10:24:49.020Z,3.90
2018-12-11T10:27:17.558Z,3.90
2018-12-11T10:29:46.046Z,3.90
2018-12-11T10:32:14.716Z,3.90
2018-12-11T10:34:43.249Z,4.10
2018-12-11T10:37:11.838Z,4.10
2018-12-11T10:39:41.524Z,4.10
2018-12-11T10:42:10.097Z,4.20
2018-12-11T10:44:38.756Z,4.10
2018-12-11T10:47:07.308Z,4.00
2018-12-11T10:49:35.846Z,4.20
2018-12-11T10:52:04.531Z,4.30
2018-12-11T10:54:33.123Z,4.30
2018-12-11T10:57:01.671Z,4.40
2018-12-11T10:59:30.185Z,4.50
2018-12-11T11:02:02.941Z,4.70
2018-12-11T11:04:32.212Z,4.70
2018-12-11T11:07:00.835Z,4.60
2018-12-11T11:09:29.337Z,4.60
2018-12-11T11:11:57.924Z,4.60
2018-12-11T11:14:26.598Z,4.60
2018-12-11T11:16:55.108Z,4.60
2018-12-11T11:19:23.674Z,4.50
2018-12-11T11:21:52.307Z,4.40
2018-12-11T11:24:21.051Z,4.50
2018-12-11T11:26:49.775Z,4.40
2018-12-11T11:29:18.301Z,4.40
2018-12-11T11:31:46.989Z,4.10
2018-12-11T11:34:15.636Z,4.20
2018-12-11T11:36:44.191Z,4.30
2018-12-11T11:39:13.717Z,4.20
2018-12-11T11:41:42.235Z,4.30
2018-12-11T11:44:11.436Z,4.30
2018-12-11T11:46:39.995Z,4.20
2018-12-11T11:49:08.508Z,4.30
2018-12-11T11:51:37.158Z,4.60
2018-12-11T11:54:05.680Z,4.70
2018-12-11T11:56:34.301Z,4.70
2018-12-11T11:59:02.899Z,4.90
2018-12-11T12:01:31.503Z,4.70
2018-12-11T12:04:00.126Z,4.80
2018-12-11T12:06:28.635Z,4.70
2018-12-11T12:08:59.396Z,4.80
2018-12-11T12:11:27.863Z,4.80
2018-12-11T12:13:56.530Z,4.70
2018-12-11T12:16:25.050Z,4.70
2018-12-11T12:18:53.663Z,4.70
2018-12-11T12:21:22.212Z,4.60
2018-12-11T12:23:50.713Z,4.60
2018-12-11T12:26:19.391Z,4.60
2018-12-11T12:28:47.955Z,4.40
2018-12-11T12:31:16.971Z,4.40
2018-12-11T12:33:45.541Z,4.40
2018-12-11T12:36:14.097Z,4.30
2018-12-11T12:38:42.730Z,4.30
2018-12-11T12:41:11.257Z,4.40
2018-12-11T12:43:39.793Z,4.50
2018-12-11T12:46:08.396Z,4.50
2018-12-11T12:48:36.935Z,4.30
2018-12-11T12:51:05.498Z,4.30
2018-12-11T12:53:34.009Z,4.20
2018-12-11T12:56:02.543Z,4.30
2018-12-11T12:58:31.089Z,4.50
2018-12-11T13:00:59.804Z,4.80
2018-12-11T13:03:28.576Z,4.90
2018-12-11T13:05:57.102Z,4.90
2018-12-11T13:08:25.727Z,4.70
2018-12-11T13:10:54.318Z,4.50
2018-12-11T13:13:22.842Z,4.40
2018-12-11T13:15:51.428Z,4.30
2018-12-11T13:18:19.941Z,4.30
2018-12-11T13:20:48.469Z,4.30
2018-12-11T13:23:17.023Z,4.30
2018-12-11T13:25:45.797Z,4.30
2018-12-11T13:28:14.366Z,4.30
2018-12-11T13:30:42.988Z,4.20
2018-12-11T13:33:11.530Z,4.30
2018-12-11T13:35:40.146Z,4.40
2018-12-11T13:38:08.820Z,4.10
2018-12-11T13:40:38.094Z,4.00
2018-12-11T13:43:07.798Z,4.00
2018-12-11T13:45:36.387Z,4.00
2018-12-11T13:48:05.357Z,4.00
2018-12-11T13:50:34.275Z,4.00
2018-12-11T13:53:02.886Z,4.00
2018-12-11T13:55:31.399Z,3.90
2018-12-11T13:57:59.967Z,3.90
2018-12-11T14:00:28.629Z,3.70
2018-12-11T14:02:57.447Z,3.60
2018-12-11T14:05:26.059Z,3.50
2018-12-11T14:07:54.643Z,3.20
2018-12-11T14:10:23.272Z,3.10
2018-12-11T14:12:51.758Z,2.90
2018-12-11T14:15:20.634Z,2.80
2018-12-11T14:17:49.252Z,2.60
2018-12-11T14:20:17.826Z,2.50
2018-12-11T14:22:46.408Z,2.30
2018-12-11T14:25:15.617Z,2.20
2018-12-11T14:27:44.395Z,2.00
2018-12-11T14:30:13.101Z,1.90
2018-12-11T14:32:41.572Z,1.70
2018-12-11T14:35:10.257Z,1.50
2018-12-11T14:37:38.821Z,1.30
2018-12-11T14:40:07.999Z,1.10
2018-12-11T14:42:36.575Z,0.90
2018-12-11T14:45:06.973Z,0.70
2018-12-11T14:47:39.653Z,0.60
2018-12-11T14:50:09.786Z,0.40
2018-12-11T14:52:43.746Z,0.30
2018-12-11T14:55:12.457Z,0.20
2018-12-11T14:57:44.583Z,0.00
2018-12-11T15:00:14.795Z,0.00
2018-12-11T15:02:43.677Z,-0.10
2018-12-11T15:05:13.041Z,-0.10
2018-12-11T15:07:42.060Z,-0.20
2018-12-11T15:10:12.212Z,-0.50
2018-12-11T15:12:40.861Z,-0.50
2018-12-11T15:15:11.011Z,-0.70
2018-12-11T15:17:40.395Z,-0.80
2018-12-11T15:20:09.726Z,-0.80
2018-12-11T15:22:38.385Z,-0.90
2018-12-11T15:25:07.277Z,-1.00
2018-12-11T15:27:35.957Z,-0.90
2018-12-11T15:30:05.155Z,-0.70
2018-12-11T15:32:33.791Z,-0.70
2018-12-11T15:35:02.427Z,-0.80
2018-12-11T15:37:31.028Z,-0.90
2018-12-11T15:39:59.717Z,-1.00
2018-12-11T15:42:28.347Z,-1.10
2018-12-11T15:44:59.123Z,-1.20
2018-12-11T15:47:27.925Z,-1.30
2018-12-11T15:49:58.178Z,-1.30
2018-12-11T15:52:26.888Z,-1.30
2018-12-11T15:54:55.797Z,-1.40
2018-12-11T15:57:24.408Z,-1.40
2018-12-11T15:59:53.094Z,-1.40
2018-12-11T16:02:21.766Z,-1.40
2018-12-11T16:04:50.414Z,-1.40
2018-12-11T16:07:18.969Z,-1.50
2018-12-11T16:09:47.651Z,-1.60
2018-12-11T16:12:16.386Z,-1.60
2018-12-11T16:14:44.926Z,-1.60
2018-12-11T16:17:13.476Z,-1.60
2018-12-11T16:19:42.157Z,-1.60
2018-12-11T16:22:11.763Z,-1.70
2018-12-11T16:24:40.434Z,-1.60
2018-12-11T16:27:09.073Z,-1.60
2018-12-11T16:29:37.623Z,-1.60
2018-12-11T16:32:06.175Z,-1.50
2018-12-11T16:34:34.772Z,-1.40
2018-12-11T16:37:03.930Z,-1.30
2018-12-11T16:39:32.856Z,-1.30
2018-12-11T16:42:02.875Z,-1.20
2018-12-11T16:44:36.023Z,-1.20
2018-12-11T16:47:05.249Z,-1.10
2018-12-11T16:49:33.811Z,-1.10
2018-12-11T16:52:02.326Z,-1.00
2018-12-11T16:54:30.907Z,-1.00
2018-12-11T16:56:59.514Z,-1.00
2018-12-11T16:59:28.471Z,-0.90
2018-12-11T17:01:57.146Z,-0.90
2018-12-11T17:04:25.735Z,-0.90
2018-12-11T17:06:54.289Z,-0.80
2018-12-11T17:09:22.874Z,-0.90
2018-12-11T17:11:51.417Z,-0.90
2018-12-11T17:14:19.975Z,-0.90
2018-12-11T17:16:48.566Z,-0.90
2018-12-11T17:19:17.123Z,-1.00
2018-12-11T17:21:47.028Z,-0.90
2018-12-11T17:24:16.016Z,-0.90
2018-12-11T17:26:44.611Z,-0.90
2018-12-11T17:29:13.299Z,-0.80
2018-12-11T17:31:41.851Z,-0.80
2018-12-11T17:34:10.452Z,-0.80
2018-12-11T17:36:38.984Z,-0.70
2018-12-11T17:39:08.229Z,-0.60
2018-12-11T17:41:36.843Z,-0.60
2018-12-11T17:44:05.507Z,-0.50
2018-12-11T17:46:34.161Z,-0.40
2018-12-11T17:49:02.736Z,-0.20
2018-12-11T17:51:31.302Z,-0.10
2018-12-11T17:53:59.965Z,-0.10
2018-12-11T17:56:28.493Z,-0.10
2018-12-11T17:58:57.675Z,0.00
2018-12-11T18:01:28.361Z,0.00
2018-12-11T18:03:56.899Z,0.10
2018-12-11T18:06:25.420Z,0.20
2018-12-11T18:08:54.033Z,0.10
2018-12-11T18:11:22.641Z,0.00
2018-12-11T18:13:51.252Z,0.00
2018-12-11T18:16:19.941Z,-0.10
2018-12-11T18:18:48.525Z,-0.10
2018-12-11T18:21:17.705Z,-0.10
2018-12-11T18:23:46.348Z,-0.10
2018-12-11T18:26:14.972Z,-0.10
2018-12-11T18:28:43.580Z,-0.20
2018-12-11T18:31:12.191Z,-0.20
2018-12-11T18:33:40.826Z,-0.20
2018-12-11T18:36:09.482Z,-0.20
2018-12-11T18:38:38.095Z,-0.30
2018-12-11T18:41:06.738Z,-0.40
2018-12-11T18:43:35.344Z,-0.40
2018-12-11T18:46:03.974Z,-0.40
2018-12-11T18:48:32.610Z,-0.50
2018-12-11T18:51:01.254Z,-0.60
2018-12-11T18:53:29.810Z,-0.60
2018-12-11T18:55:58.756Z,-0.60
2018-12-11T18:58:27.323Z,-0.50
2018-12-11T19:00:55.864Z,-0.50
2018-12-11T19:03:24.426Z,-0.60
2018-12-11T19:05:53.292Z,-0.60
2018-12-11T19:08:22.000Z,-0.60
2018-12-11T19:10:50.624Z,-0.60
2018-12-11T19:13:19.275Z,-0.60
2018-12-11T19:15:48.151Z,-0.60
2018-12-11T19:18:16.833Z,-0.60
2018-12-11T19:20:45.834Z,-0.60
2018-12-11T19:23:32.407Z,-0.60
2018-12-11T19:26:15.372Z,-0.70
2018-12-11T19:28:44.492Z,-0.60
2018-12-11T19:31:13.079Z,-0.60
2018-12-11T19:33:41.863Z,-0.60
2018-12-11T19:36:10.590Z,-0.60
2018-12-11T19:38:39.090Z,-0.40
2018-12-11T19:41:07.776Z,-0.40
2018-12-11T19:43:36.361Z,-0.40
2018-12-11T19:46:04.990Z,-0.40
2018-12-11T19:48:33.500Z,-0.40
2018-12-11T19:51:02.341Z,-0.40
2018-12-11T19:53:31.592Z,-0.40
2018-12-11T19:56:00.184Z,-0.40
2018-12-11T19:58:28.771Z,-0.30
2018-12-11T20:00:57.304Z,-0.40
2018-12-11T20:03:25.978Z,-0.30
2018-12-11T20:05:54.544Z,-0.30
2018-12-11T20:08:23.151Z,-0.30
2018-12-11T20:10:53.972Z,-0.30
2018-12-11T20:13:22.677Z,-0.30
2018-12-11T20:15:51.290Z,-0.20
2018-12-11T20:18:19.854Z,-0.20
2018-12-11T20:20:49.434Z,-0.20
2018-12-11T20:23:18.004Z,-0.20
2018-12-11T20:25:47.179Z,-0.20
2018-12-11T20:28:15.722Z,-0.20
2018-12-11T20:30:44.263Z,-0.10
2018-12-11T20:33:12.869Z,-0.20
2018-12-11T20:35:43.153Z,-0.20
2018-12-11T20:38:11.829Z,-0.20
2018-12-11T20:40:40.375Z,-0.10
2018-12-11T20:43:09.443Z,-0.10
2018-12-11T20:45:38.091Z,-0.10
2018-12-11T20:48:06.685Z,-0.20
2018-12-11T20:50:35.402Z,-0.10
2018-12-11T20:53:04.005Z,-0.10
2018-12-11T20:55:32.606Z,-0.10
2018-12-11T20:58:01.136Z,-0.10
2018-12-11T21:00:33.932Z,-0.10
2018-12-11T21:03:03.053Z,-0.10
2018-12-11T21:05:31.645Z,-0.10
2018-12-11T21:08:00.242Z,-0.10
2018-12-11T21:10:29.334Z,-0.10
2018-12-11T21:12:57.853Z,-0.10
2018-12-11T21:15:26.401Z,0.00
2018-12-11T21:17:54.899Z,0.00
2018-12-11T21:20:23.813Z,0.00
2018-12-11T21:22:52.458Z,0.00
2018-12-11T21:25:21.137Z,0.00
2018-12-11T21:27:49.819Z,0.00
2018-12-11T21:30:18.382Z,0.00
2018-12-11T21:32:46.896Z,0.10
2018-12-11T21:35:15.462Z,0.10
2018-12-11T21:37:44.041Z,0.20
2018-12-11T21:40:12.782Z,0.20
2018-12-11T21:42:41.460Z,0.20
2018-12-11T21:45:10.141Z,0.20
2018-12-11T21:47:38.646Z,0.20
2018-12-11T21:50:08.527Z,0.30
2018-12-11T21:52:37.176Z,0.30
2018-12-11T21:55:07.015Z,0.20
2018-12-11T21:57:35.676Z,0.20
2018-12-11T22:00:06.432Z,0.20
2018-12-11T22:02:36.183Z,0.20
2018-12-11T22:05:05.374Z,0.20
2018-12-11T22:07:34.146Z,0.20
2018-12-11T22:10:02.962Z,0.20
2018-12-11T22:12:40.006Z,0.30
2018-12-11T22:15:08.827Z,0.30
2018-12-11T22:17:45.394Z,0.30
2018-12-11T22:20:13.988Z,0.30
2018-12-11T22:22:42.992Z,0.30
2018-12-11T22:25:11.696Z,0.30
2018-12-11T22:27:40.298Z,0.30
2018-12-11T22:30:09.072Z,0.30
2018-12-11T22:32:37.804Z,0.30
2018-12-11T22:35:06.392Z,0.30
2018-12-11T22:37:35.104Z,0.30
2018-12-11T22:40:04.130Z,0.30
2018-12-11T22:42:32.736Z,0.30
2018-12-11T22:45:01.385Z,0.40
2018-12-11T22:47:29.942Z,0.40
2018-12-11T22:49:58.521Z,0.40
2018-12-11T22:52:27.094Z,0.40
2018-12-11T22:54:55.658Z,0.50
2018-12-11T22:57:24.164Z,0.50
2018-12-11T22:59:52.682Z,0.50
2018-12-11T23:02:21.269Z,0.50
2018-12-11T23:04:50.000Z,0.50
2018-12-11T23:07:18.577Z,0.50
2018-12-11T23:09:47.202Z,0.50
2018-12-11T23:12:15.842Z,0.50
2018-12-11T23:14:44.432Z,0.60
2018-12-11T23:17:12.960Z,0.60
2018-12-11T23:19:41.480Z,0.60
2018-12-11T23:22:10.052Z,0.60
2018-12-11T23:59:02.524Z,0.80
